Time;durP1;ratioP1;P1;durP2;ratioP2;P2;SDS_P1;SDS_P2;PMS_P1;PMS_P2;Temp;Humidity;BMP_temperature;BMP_pressure;BME280_temperature;BME280_humidity;BME280_pressure;Samples;Min_cycle;Max_cycle;Signal;HPM_P1;HPM_P2
2023/04/24 00:01:00;;;;;;;0.77;0.77;;;10.30;99.90;;;;;;5109310;27;20043;-83
2023/04/24 00:03:27;;;;;;;1.05;1.00;;;10.30;99.90;;;;;;5109279;27;20390;-83
2023/04/24 00:05:56;;;;;;;1.00;1.00;;;10.30;99.90;;;;;;5108292;27;20047;-82
2023/04/24 00:08:23;;;;;;;1.23;1.10;;;10.20;99.90;;;;;;5093352;27;20046;-83
2023/04/24 00:10:49;;;;;;;0.90;0.90;;;10.20;99.90;;;;;;5080830;27;21398;-83
2023/04/24 00:13:14;;;;;;;1.15;1.13;;;10.20;99.90;;;;;;5110426;27;20051;-83
2023/04/24 00:15:40;;;;;;;1.23;1.23;;;10.20;99.90;;;;;;5094970;27;20043;-83
2023/04/24 00:18:06;;;;;;;1.63;1.20;;;10.10;99.90;;;;;;5085244;27;20044;-83
2023/04/24 00:20:33;;;;;;;1.30;1.20;;;10.10;99.90;;;;;;5110560;27;20074;-83
2023/04/24 00:22:59;;;;;;;1.20;1.15;;;10.10;99.90;;;;;;5108654;27;20043;-83
2023/04/24 00:25:24;;;;;;;1.50;1.40;;;10.10;99.90;;;;;;5108826;27;20045;-83
2023/04/24 00:27:50;;;;;;;1.58;1.48;;;10.10;99.90;;;;;;5109541;27;20035;-82
2023/04/24 00:30:15;;;;;;;2.03;1.45;;;10.00;99.90;;;;;;5108813;27;20047;-83
2023/04/24 00:32:41;;;;;;;1.45;1.35;;;10.10;99.90;;;;;;5107877;27;20441;-82
2023/04/24 00:35:07;;;;;;;1.88;1.77;;;10.00;99.90;;;;;;5102487;27;20330;-83
2023/04/24 00:37:32;;;;;;;1.70;1.60;;;10.10;99.90;;;;;;5109495;27;20059;-83
2023/04/24 00:39:58;;;;;;;1.63;1.52;;;10.10;99.90;;;;;;5103661;27;20489;-83
2023/04/24 00:42:25;;;;;;;1.60;1.50;;;10.10;99.90;;;;;;5102606;27;20047;-83
2023/04/24 00:44:51;;;;;;;1.65;1.55;;;10.10;99.90;;;;;;5093313;27;20050;-82
2023/04/24 00:47:18;;;;;;;1.98;1.80;;;10.10;99.90;;;;;;5109394;27;20681;-82
2023/04/24 00:49:44;;;;;;;2.00;1.90;;;10.10;99.90;;;;;;5107313;27;20047;-82
2023/04/24 00:52:10;;;;;;;1.83;1.73;;;10.10;99.90;;;;;;5091738;27;20050;-83
2023/04/24 00:54:36;;;;;;;2.30;2.10;;;10.00;99.90;;;;;;5110730;27;20046;-83
2023/04/24 00:57:05;;;;;;;2.53;2.33;;;10.00;99.90;;;;;;5110384;27;20042;-83
2023/04/24 00:59:31;;;;;;;2.60;2.08;;;10.00;99.90;;;;;;5109307;27;20047;-83
2023/04/24 01:01:58;;;;;;;2.72;2.53;;;10.00;99.90;;;;;;5107518;27;20630;-83
2023/04/24 01:04:24;;;;;;;2.70;2.50;;;10.00;99.90;;;;;;5109271;27;20088;-83
2023/04/24 01:06:50;;;;;;;2.58;2.38;;;10.00;99.90;;;;;;5098427;27;20075;-83
2023/04/24 01:09:17;;;;;;;2.88;2.67;;;10.00;99.90;;;;;;5092281;27;20085;-83
2023/04/24 01:11:45;;;;;;;3.30;3.00;;;10.00;99.90;;;;;;5109598;27;20526;-83
2023/04/24 01:14:11;;;;;;;3.10;2.80;;;10.00;99.90;;;;;;5089947;27;20058;-83
2023/04/24 01:16:38;;;;;;;3.53;3.22;;;10.00;99.90;;;;;;5092311;27;20372;-82
2023/04/24 01:19:05;;;;;;;4.10;3.70;;;10.00;99.90;;;;;;5123200;27;20035;-84
2023/04/24 01:21:36;;;;;;;4.00;3.70;;;9.70;99.90;;;;;;5120871;27;20084;-84
2023/04/24 01:24:02;;;;;;;4.05;3.70;;;10.10;99.90;;;;;;5127792;27;20054;-84
2023/04/24 01:26:28;;;;;;;5.07;3.75;;;10.10;99.90;;;;;;5126978;27;20049;-85
2023/04/24 01:28:53;;;;;;;4.18;3.78;;;10.10;99.90;;;;;;5127945;27;20142;-84
2023/04/24 01:31:20;;;;;;;4.03;3.63;;;10.10;99.90;;;;;;5126995;27;20370;-84
2023/04/24 01:33:46;;;;;;;3.85;3.55;;;10.10;99.90;;;;;;5110169;27;20086;-84
2023/04/24 01:36:13;;;;;;;4.72;3.22;;;10.10;99.90;;;;;;5092419;27;20059;-83
2023/04/24 01:38:39;;;;;;;3.17;2.88;;;10.10;99.90;;;;;;5126459;27;20051;-86
2023/04/24 01:41:04;;;;;;;3.50;3.20;;;10.10;99.90;;;;;;5090113;27;20043;-84
2023/04/24 01:43:31;;;;;;;4.18;3.72;;;10.00;99.90;;;;;;5111101;27;20047;-84
2023/04/24 01:45:56;;;;;;;3.92;3.63;;;10.10;99.90;;;;;;5107835;28;20515;-84
2023/04/24 01:48:22;;;;;;;4.00;3.63;;;9.60;99.90;;;;;;5108151;27;20047;-84
2023/04/24 01:50:48;;;;;;;4.35;3.92;;;10.00;99.90;;;;;;5109536;28;20497;-84
2023/04/24 01:53:13;;;;;;;4.05;3.75;;;9.90;99.90;;;;;;5105881;27;20396;-84
2023/04/24 01:55:40;;;;;;;3.80;3.50;;;9.90;99.90;;;;;;5124659;27;20039;-85
2023/04/24 01:58:05;;;;;;;3.67;3.38;;;9.90;99.90;;;;;;5107962;28;20105;-85
2023/04/24 02:00:31;;;;;;;3.97;3.67;;;9.80;99.90;;;;;;5091428;28;20460;-84
2023/04/24 02:02:57;;;;;;;3.80;3.50;;;9.80;99.90;;;;;;5124966;28;20043;-84
2023/04/24 02:05:22;;;;;;;4.03;3.58;;;9.80;99.90;;;;;;5086785;28;20210;-84
2023/04/24 02:07:48;;;;;;;3.58;3.30;;;9.80;99.90;;;;;;5107712;28;20123;-84
2023/04/24 02:10:14;;;;;;;3.55;3.25;;;9.70;99.90;;;;;;5108111;28;20084;-86
2023/04/24 02:12:39;;;;;;;3.78;3.47;;;9.70;99.90;;;;;;5107811;28;20039;-84
2023/04/24 02:15:06;;;;;;;3.60;3.40;;;9.70;99.90;;;;;;5126230;28;20095;-85
2023/04/24 02:17:36;;;;;;;3.95;3.65;;;9.70;99.90;;;;;;5109516;28;20062;-84
2023/04/24 02:20:02;;;;;;;3.47;3.28;;;9.70;99.90;;;;;;5108169;28;20051;-85
2023/04/24 02:22:27;;;;;;;3.63;3.33;;;9.70;99.90;;;;;;5102393;28;20039;-85
2023/04/24 02:24:53;;;;;;;3.72;3.35;;;9.60;99.90;;;;;;5085916;28;20036;-83
2023/04/24 02:27:18;;;;;;;3.70;3.40;;;10.10;99.90;;;;;;5107544;27;20039;-83
2023/04/24 02:29:44;;;;;;;3.58;3.28;;;10.00;99.90;;;;;;5109831;27;20122;-83
2023/04/24 02:32:11;;;;;;;4.20;3.80;;;9.60;99.90;;;;;;5110866;27;20035;-83
2023/04/24 02:34:37;;;;;;;3.95;3.53;;;9.60;99.90;;;;;;5096064;27;20162;-83
2023/04/24 02:37:03;;;;;;;4.10;3.67;;;9.60;99.90;;;;;;5111205;27;20035;-82
2023/04/24 02:39:29;;;;;;;3.58;3.38;;;9.60;99.90;;;;;;5110654;27;20498;-83
2023/04/24 02:41:55;;;;;;;3.67;3.38;;;9.50;99.90;;;;;;5112145;27;20137;-83
2023/04/24 02:44:22;;;;;;;3.88;3.58;;;9.60;99.90;;;;;;5111209;27;20039;-83
2023/04/24 02:46:48;;;;;;;4.10;3.80;;;9.60;99.90;;;;;;5092998;27;20484;-84
2023/04/24 02:49:13;;;;;;;4.28;3.97;;;9.60;99.90;;;;;;5111139;27;20079;-83
2023/04/24 02:51:40;;;;;;;3.95;3.65;;;9.50;99.90;;;;;;5113023;27;20430;-83
2023/04/24 02:54:10;;;;;;;4.07;3.78;;;9.60;99.90;;;;;;5112036;27;20393;-83
2023/04/24 02:56:37;;;;;;;4.32;4.03;;;9.50;99.90;;;;;;5113031;27;20047;-83
2023/04/24 02:59:03;;;;;;;4.30;4.00;;;9.50;99.90;;;;;;5093193;27;20161;-83
2023/04/24 03:01:28;;;;;;;4.10;3.80;;;9.50;99.90;;;;;;5110806;27;20118;-83
2023/04/24 03:03:54;;;;;;;4.47;4.07;;;9.60;99.90;;;;;;5112376;27;20158;-82
2023/04/24 03:06:22;;;;;;;4.68;4.10;;;9.50;99.90;;;;;;5113547;27;20118;-82
2023/04/24 03:08:48;;;;;;;4.82;4.32;;;9.50;99.90;;;;;;5112366;27;20126;-82
2023/04/24 03:11:13;;;;;;;4.95;4.55;;;9.50;99.90;;;;;;5111867;27;20035;-83
2023/04/24 03:13:39;;;;;;;5.38;4.85;;;9.50;99.90;;;;;;5112251;27;20122;-83
2023/04/24 03:16:05;;;;;;;5.47;4.72;;;9.50;99.90;;;;;;5094765;27;20035;-83
2023/04/24 03:18:31;;;;;;;4.72;4.32;;;9.50;99.90;;;;;;5112228;27;20039;-84
2023/04/24 03:20:56;;;;;;;5.55;5.05;;;9.50;99.90;;;;;;5109706;27;20039;-82
2023/04/24 03:23:22;;;;;;;5.40;4.90;;;10.00;99.90;;;;;;5111815;27;20131;-82
2023/04/24 03:25:48;;;;;;;5.55;5.05;;;9.50;99.90;;;;;;5112405;27;20168;-82
2023/04/24 03:28:14;;;;;;;5.55;5.05;;;9.50;99.90;;;;;;5110872;27;20476;-82
2023/04/24 03:30:39;;;;;;;4.72;4.30;;;9.50;99.90;;;;;;5111279;27;20078;-82
2023/04/24 03:33:05;;;;;;;6.03;4.70;;;9.50;99.90;;;;;;5112490;27;20058;-83
2023/04/24 03:35:31;;;;;;;5.65;5.15;;;9.50;99.90;;;;;;5112864;27;20522;-83
2023/04/24 03:37:56;;;;;;;5.63;5.13;;;9.40;99.90;;;;;;5111381;27;20433;-82
2023/04/24 03:40:23;;;;;;;5.10;4.70;;;9.50;99.90;;;;;;5128165;27;20162;-83
2023/04/24 03:42:49;;;;;;;5.28;4.70;;;9.40;99.90;;;;;;5111853;27;20125;-83
2023/04/24 03:45:14;;;;;;;4.90;4.50;;;9.50;99.90;;;;;;5101556;27;20096;-82
2023/04/24 03:47:40;;;;;;;4.65;4.25;;;9.40;99.90;;;;;;5110846;27;20035;-83
2023/04/24 03:50:06;;;;;;;4.18;3.78;;;9.40;99.90;;;;;;5111860;27;20043;-83
2023/04/24 03:52:32;;;;;;;4.60;3.42;;;9.40;99.90;;;;;;5129007;27;20030;-83
2023/04/24 03:54:57;;;;;;;3.40;3.10;;;9.40;99.90;;;;;;5126367;27;20367;-83
2023/04/24 03:57:23;;;;;;;3.40;3.10;;;9.40;99.90;;;;;;5125949;27;20043;-84
2023/04/24 03:59:49;;;;;;;3.20;2.95;;;9.40;99.90;;;;;;5095323;27;20070;-83
2023/04/24 04:02:14;;;;;;;3.08;2.88;;;9.40;99.90;;;;;;5091171;27;20050;-83
2023/04/24 04:04:40;;;;;;;3.17;2.65;;;9.40;99.90;;;;;;5130274;27;20039;-83
2023/04/24 04:07:06;;;;;;;2.60;2.40;;;9.40;99.90;;;;;;5127059;27;20050;-82
2023/04/24 04:09:32;;;;;;;2.38;2.20;;;9.40;99.90;;;;;;5129491;27;20050;-84
2023/04/24 04:11:58;;;;;;;2.40;2.20;;;9.40;99.90;;;;;;5129383;27;20779;-83
2023/04/24 04:14:24;;;;;;;2.20;2.00;;;9.40;99.90;;;;;;5112506;27;20050;-83
2023/04/24 04:16:50;;;;;;;2.10;2.00;;;9.40;99.90;;;;;;5128976;27;20035;-83
2023/04/24 04:19:15;;;;;;;1.95;1.85;;;9.40;99.90;;;;;;5109540;27;20047;-85
2023/04/24 04:21:45;;;;;;;1.30;1.20;;;9.40;99.90;;;;;;5108116;27;20378;-84
2023/04/24 04:24:11;;;;;;;0.85;0.80;;;9.40;99.90;;;;;;5110080;27;20107;-83
2023/04/24 04:26:37;;;;;;;1.08;0.90;;;9.40;99.90;;;;;;5087722;27;20039;-83
2023/04/24 04:29:03;;;;;;;1.20;1.10;;;9.40;99.90;;;;;;5127055;27;20047;-83
2023/04/24 04:31:30;;;;;;;0.90;0.90;;;9.90;99.90;;;;;;5110547;27;20067;-83
2023/04/24 04:33:56;;;;;;;3.40;2.00;;;9.40;99.90;;;;;;5106283;27;20058;-83
2023/04/24 04:36:21;;;;;;;2.60;2.40;;;9.40;99.90;;;;;;5110675;27;20349;-84
2023/04/24 04:38:47;;;;;;;3.45;3.15;;;9.40;99.90;;;;;;5107088;27;20046;-83
2023/04/24 04:41:12;;;;;;;3.20;2.90;;;9.50;99.90;;;;;;5129213;27;20054;-83
2023/04/24 04:43:39;;;;;;;3.35;3.10;;;9.50;99.90;;;;;;5126012;27;20645;-83
2023/04/24 04:46:05;;;;;;;3.38;3.08;;;9.40;99.90;;;;;;5104853;27;20133;-83
2023/04/24 04:48:31;;;;;;;3.28;3.00;;;9.40;99.90;;;;;;5090576;27;20246;-83
2023/04/24 04:50:58;;;;;;;3.05;2.85;;;9.40;99.90;;;;;;5129189;27;20185;-83
2023/04/24 04:53:23;;;;;;;3.22;2.97;;;9.40;99.90;;;;;;5106764;27;20050;-82
2023/04/24 04:55:49;;;;;;;3.58;3.25;;;9.40;99.90;;;;;;5129008;27;20039;-81
2023/04/24 04:58:17;;;;;;;3.22;2.92;;;9.40;99.90;;;;;;5116643;27;20040;-83
2023/04/24 05:00:43;;;;;;;3.05;2.80;;;9.40;99.90;;;;;;5107417;27;20055;-83
2023/04/24 05:03:09;;;;;;;3.13;2.72;;;9.40;99.90;;;;;;5108401;27;20055;-82
2023/04/24 05:05:35;;;;;;;2.63;2.42;;;9.60;99.90;;;;;;5129432;27;20046;-83
2023/04/24 05:08:00;;;;;;;2.25;2.13;;;9.40;99.90;;;;;;5109696;27;20113;-83
2023/04/24 05:10:26;;;;;;;2.92;2.72;;;9.30;99.90;;;;;;5128856;27;20583;-82
2023/04/24 05:12:51;;;;;;;2.20;2.10;;;9.40;99.90;;;;;;5109899;27;20224;-83
2023/04/24 05:15:17;;;;;;;2.30;2.13;;;9.30;99.90;;;;;;5109439;27;20451;-83
2023/04/24 05:17:43;;;;;;;3.78;2.45;;;9.30;99.90;;;;;;5110624;27;20118;-83
2023/04/24 05:20:09;;;;;;;2.45;2.25;;;9.30;99.90;;;;;;5108052;27;20099;-82
2023/04/24 05:22:35;;;;;;;3.05;2.42;;;9.30;99.90;;;;;;5126611;27;20058;-82
2023/04/24 05:25:02;;;;;;;2.70;2.50;;;9.30;99.90;;;;;;5128393;27;20054;-83
2023/04/24 05:27:27;;;;;;;2.60;2.30;;;9.30;99.90;;;;;;5092802;27;20051;-85
2023/04/24 05:29:53;;;;;;;2.38;2.17;;;9.30;99.90;;;;;;5108463;27;20039;-84
2023/04/24 05:32:19;;;;;;;2.67;2.47;;;9.40;99.90;;;;;;5108634;27;20050;-83
2023/04/24 05:34:45;;;;;;;3.33;3.03;;;9.30;99.90;;;;;;5105320;27;20047;-83
2023/04/24 05:37:10;;;;;;;3.60;2.90;;;9.40;99.90;;;;;;5125155;27;20061;-84
2023/04/24 05:39:36;;;;;;;3.10;2.80;;;9.40;99.90;;;;;;5106608;27;20057;-85
2023/04/24 05:42:03;;;;;;;2.90;2.60;;;9.40;99.90;;;;;;5103941;27;20043;-84
2023/04/24 05:44:28;;;;;;;3.13;2.83;;;9.40;99.90;;;;;;5088256;27;20034;-85
2023/04/24 05:46:55;;;;;;;3.40;3.10;;;9.40;99.90;;;;;;5108946;27;20549;-85
2023/04/24 05:49:21;;;;;;;3.63;2.53;;;9.50;99.90;;;;;;5087336;27;20042;-84
2023/04/24 05:51:46;;;;;;;3.75;2.92;;;9.40;99.90;;;;;;5104145;28;20046;-84
2023/04/24 05:54:15;;;;;;;2.90;2.58;;;9.40;99.90;;;;;;5108899;27;20088;-84
2023/04/24 05:56:41;;;;;;;3.20;2.90;;;9.40;99.90;;;;;;5105877;27;20409;-83
2023/04/24 05:59:07;;;;;;;3.90;2.83;;;9.40;99.90;;;;;;5104870;28;20039;-83
2023/04/24 06:01:33;;;;;;;3.20;2.90;;;9.50;99.90;;;;;;5086497;28;20035;-84
2023/04/24 06:03:59;;;;;;;3.35;3.03;;;9.60;99.90;;;;;;5091101;28;20497;-83
2023/04/24 06:06:25;;;;;;;3.40;2.88;;;9.50;99.90;;;;;;5108989;28;20047;-83
2023/04/24 06:08:51;;;;;;;4.35;3.00;;;9.60;99.90;;;;;;5093922;28;20130;-83
2023/04/24 06:11:17;;;;;;;2.75;2.55;;;9.60;99.90;;;;;;5109055;28;20126;-83
2023/04/24 06:13:42;;;;;;;2.80;2.60;;;9.60;99.90;;;;;;5109403;28;20342;-82
2023/04/24 06:16:13;;;;;;;2.90;2.00;;;9.90;99.90;;;;;;5108111;28;20074;-82
2023/04/24 06:18:39;;;;;;;2.30;2.10;;;9.70;99.90;;;;;;5092099;28;20474;-83
2023/04/24 06:21:05;;;;;;;2.75;2.00;;;9.70;99.90;;;;;;5107926;28;20058;-84
2023/04/24 06:23:32;;;;;;;2.50;2.30;;;9.80;99.90;;;;;;5089995;28;20039;-83
2023/04/24 06:25:58;;;;;;;2.20;2.00;;;10.20;99.90;;;;;;5108340;28;20055;-83
2023/04/24 06:28:24;;;;;;;1.60;1.50;;;9.80;99.90;;;;;;5125052;28;20035;-83
2023/04/24 06:30:50;;;;;;;1.90;1.80;;;9.80;99.90;;;;;;5105406;28;20088;-83
2023/04/24 06:33:16;;;;;;;2.42;1.77;;;9.80;99.90;;;;;;5107911;28;20108;-82
2023/04/24 06:35:42;;;;;;;1.90;1.80;;;10.20;99.90;;;;;;5109059;28;20039;-82
2023/04/24 06:38:08;;;;;;;1.58;1.48;;;9.80;99.90;;;;;;5127659;28;20413;-81
2023/04/24 06:40:33;;;;;;;1.83;1.60;;;9.90;99.90;;;;;;5107172;28;20088;-80
2023/04/24 06:43:00;;;;;;;1.42;1.33;;;9.80;99.90;;;;;;5113061;28;20047;-81
2023/04/24 06:45:25;;;;;;;1.42;1.10;;;9.90;99.90;;;;;;5127115;28;20046;-83
2023/04/24 06:47:51;;;;;;;1.75;1.42;;;9.90;99.90;;;;;;5128354;27;20039;-82
2023/04/24 06:50:17;;;;;;;1.50;1.40;;;9.90;99.90;;;;;;5126549;27;20035;-80
2023/04/24 06:52:46;;;;;;;1.17;1.08;;;9.90;99.90;;;;;;5119189;28;20075;-82
2023/04/24 06:55:16;;;;;;;1.60;1.50;;;9.90;99.90;;;;;;5083463;28;20080;-82
2023/04/24 06:57:42;;;;;;;1.77;1.50;;;9.90;99.90;;;;;;5073804;28;20421;-83
2023/04/24 07:00:09;;;;;;;2.63;1.70;;;10.20;99.90;;;;;;5090381;28;20040;-83
2023/04/24 07:02:35;;;;;;;2.25;2.00;;;9.80;99.90;;;;;;5108021;28;20065;-82
2023/04/24 07:05:26;;;;;;;2.17;1.95;;;9.80;99.90;;;;;;5090477;28;20485;-81
2023/04/24 07:07:53;;;;;;;3.45;2.40;;;9.90;99.90;;;;;;5110984;28;20118;-82
2023/04/24 07:10:21;;;;;;;4.45;2.50;;;9.90;99.90;;;;;;5095255;28;20062;-82
2023/04/24 07:12:49;;;;;;;4.72;3.25;;;9.90;99.90;;;;;;5094978;28;20138;-82
2023/04/24 07:15:15;;;;;;;2.83;2.33;;;9.90;99.90;;;;;;5108091;28;20052;-84
2023/04/24 07:17:43;;;;;;;4.47;2.67;;;9.90;99.90;;;;;;5106988;28;20063;-85
2023/04/24 07:20:10;;;;;;;3.63;3.05;;;9.90;99.90;;;;;;5123757;27;20043;-81
2023/04/24 07:22:37;;;;;;;4.32;2.97;;;9.90;99.90;;;;;;5101548;27;20054;-84
2023/04/24 07:25:03;;;;;;;5.22;3.53;;;9.90;99.90;;;;;;5126975;27;20058;-81
2023/04/24 07:27:28;;;;;;;7.40;4.20;;;9.90;99.90;;;;;;5094974;27;20047;-81
2023/04/24 07:29:54;;;;;;;8.05;4.70;;;9.90;99.90;;;;;;5136734;27;20046;-84
2023/04/24 07:32:20;;;;;;;6.72;4.60;;;9.80;99.90;;;;;;5131660;27;20155;-81
2023/04/24 07:34:45;;;;;;;6.05;4.38;;;9.90;99.90;;;;;;5106282;27;20039;-84
2023/04/24 07:37:11;;;;;;;5.00;4.00;;;9.80;99.90;;;;;;5086024;27;20035;-85
2023/04/24 07:39:47;;;;;;;6.65;3.97;;;9.90;99.90;;;;;;5082548;27;20363;-85
2023/04/24 07:42:13;;;;;;;6.20;4.30;;;9.90;99.90;;;;;;5091089;28;20051;-85
2023/04/24 07:44:38;;;;;;;5.43;3.55;;;9.90;99.90;;;;;;5088007;28;20039;-84
2023/04/24 07:47:07;;;;;;;6.32;3.67;;;10.30;99.90;;;;;;5073969;28;20039;-84
2023/04/24 07:49:34;;;;;;;4.57;3.55;;;9.90;99.90;;;;;;5076541;28;20050;-84
2023/04/24 07:52:02;;;;;;;4.70;3.25;;;9.90;99.90;;;;;;5112008;28;20146;-84
2023/04/24 07:54:30;;;;;;;5.78;2.60;;;9.70;99.90;;;;;;5079987;27;20047;-86
2023/04/24 07:56:56;;;;;;;3.00;2.47;;;9.80;99.90;;;;;;5093990;28;20039;-84
2023/04/24 07:59:22;;;;;;;2.92;1.85;;;9.80;99.90;;;;;;5073181;28;20043;-85
2023/04/24 08:01:47;;;;;;;2.80;2.28;;;9.70;99.90;;;;;;5074956;28;20070;-86
2023/04/24 08:04:14;;;;;;;4.20;2.58;;;9.70;99.90;;;;;;5092048;28;20055;-85
2023/04/24 08:06:39;;;;;;;5.00;2.30;;;9.70;99.90;;;;;;5073728;28;20043;-84
2023/04/24 08:09:05;;;;;;;3.33;1.88;;;9.60;99.90;;;;;;5090162;28;20055;-83
2023/04/24 08:11:40;;;;;;;3.72;2.20;;;9.60;99.90;;;;;;5076116;28;20043;-85
2023/04/24 08:14:06;;;;;;;4.70;2.90;;;9.50;99.90;;;;;;5091810;28;20042;-85
2023/04/24 08:16:35;;;;;;;3.47;1.80;;;9.50;99.90;;;;;;5110086;28;20070;-84
2023/04/24 08:19:00;;;;;;;3.15;2.40;;;9.50;99.90;;;;;;5092976;28;20051;-85
2023/04/24 08:21:26;;;;;;;2.80;1.70;;;9.40;99.90;;;;;;5076282;28;20377;-86
2023/04/24 08:23:52;;;;;;;2.85;2.10;;;9.70;99.90;;;;;;5091930;28;20058;-87
2023/04/24 08:26:18;;;;;;;3.50;2.28;;;9.40;99.90;;;;;;5091836;28;20055;-86
2023/04/24 08:28:44;;;;;;;5.10;2.88;;;9.50;99.90;;;;;;5090596;28;20058;-86
2023/04/24 08:31:10;;;;;;;4.32;2.92;;;9.60;99.90;;;;;;5075308;28;20370;-86
2023/04/24 08:33:35;;;;;;;3.65;2.97;;;10.20;99.90;;;;;;5094251;27;20039;-85
2023/04/24 08:36:05;;;;;;;4.50;3.05;;;9.50;99.90;;;;;;5111066;27;20043;-86
2023/04/24 08:38:31;;;;;;;8.20;3.83;;;9.50;99.90;;;;;;5111036;27;20062;-86
2023/04/24 08:40:59;;;;;;;7.43;4.05;;;9.50;99.90;;;;;;5111426;27;20051;-86
2023/04/24 08:43:26;;;;;;;8.02;4.43;;;9.70;99.90;;;;;;5111821;27;20111;-86
2023/04/24 08:45:52;;;;;;;12.35;6.10;;;9.50;99.90;;;;;;5130651;27;20086;-86
2023/04/24 08:48:18;;;;;;;13.73;6.55;;;9.70;99.90;;;;;;5111099;27;20480;-85
2023/04/24 08:50:44;;;;;;;10.90;6.35;;;9.60;99.90;;;;;;5094629;27;20051;-85
2023/04/24 08:53:13;;;;;;;14.32;7.18;;;9.30;99.90;;;;;;5091251;28;20058;-86
2023/04/24 08:55:41;;;;;;;13.48;7.13;;;9.20;99.90;;;;;;5109588;28;20040;-86
2023/04/24 08:58:07;;;;;;;11.20;8.02;;;9.20;99.90;;;;;;5091369;28;20371;-87
2023/04/24 09:00:32;;;;;;;12.73;8.02;;;9.10;99.90;;;;;;5092469;28;20047;-87
2023/04/24 09:03:01;;;;;;;12.85;8.23;;;9.10;99.90;;;;;;5093910;28;20134;-87
2023/04/24 09:05:28;;;;;;;13.45;8.77;;;9.70;99.90;;;;;;5092755;28;20048;-87
2023/04/24 09:07:55;;;;;;;15.07;9.07;;;9.30;99.90;;;;;;5085595;28;20047;-86
2023/04/24 09:10:23;;;;;;;18.65;11.15;;;9.00;99.90;;;;;;5117170;27;20176;-87
2023/04/24 09:12:50;;;;;;;18.05;10.15;;;8.50;99.90;;;;;;5114220;27;20039;-88
2023/04/24 09:15:16;;;;;;;15.70;9.85;;;8.90;99.90;;;;;;5111666;27;20047;-87
2023/04/24 09:17:46;;;;;;;21.02;11.55;;;8.80;99.90;;;;;;5114907;27;20046;-87
2023/04/24 09:20:12;;;;;;;19.48;11.30;;;8.80;99.90;;;;;;5097035;27;20107;-87
2023/04/24 09:22:43;;;;;;;19.65;12.55;;;8.90;99.90;;;;;;5096837;27;20050;-87
2023/04/24 09:25:12;;;;;;;18.55;11.90;;;8.80;99.90;;;;;;5113622;27;20047;-87
2023/04/24 09:27:45;;;;;;;22.60;11.70;;;8.80;99.90;;;;;;5098177;27;20046;-86
2023/04/24 09:30:21;;;;;;;21.20;12.35;;;8.90;99.90;;;;;;5095691;27;20047;-87
2023/04/24 09:32:46;;;;;;;18.23;11.48;;;9.10;99.90;;;;;;5111194;27;20070;-87
2023/04/24 09:35:15;;;;;;;19.00;11.45;;;8.90;99.90;;;;;;5130242;27;20386;-87
2023/04/24 09:37:42;;;;;;;18.77;11.43;;;8.90;99.90;;;;;;5091894;28;20494;-87
2023/04/24 09:40:18;;;;;;;16.27;10.10;;;9.20;99.90;;;;;;5108760;28;20422;-87
2023/04/24 09:43:02;;;;;;;16.60;10.20;;;8.90;99.90;;;;;;5092494;28;20075;-87
2023/04/24 09:45:34;;;;;;;19.08;10.57;;;9.30;99.90;;;;;;5092708;28;20051;-87
2023/04/24 09:48:00;;;;;;;14.95;9.82;;;9.20;99.90;;;;;;5093762;28;20489;-88
2023/04/24 09:50:31;;;;;;;19.48;10.48;;;9.00;99.90;;;;;;5091342;28;20143;-87
2023/04/24 09:53:01;;;;;;;15.25;9.63;;;9.00;99.90;;;;;;5109692;28;20093;-86
2023/04/24 09:55:27;;;;;;;15.18;9.93;;;9.30;99.90;;;;;;5092946;28;20055;-87
2023/04/24 09:58:00;;;;;;;12.50;9.50;;;8.90;99.90;;;;;;5110786;28;20493;-86
2023/04/24 10:00:30;;;;;;;14.05;8.82;;;9.10;99.90;;;;;;5092010;28;20408;-86
2023/04/24 10:03:08;;;;;;;17.95;8.82;;;8.90;99.90;;;;;;5108304;28;20116;-87
2023/04/24 10:05:43;;;;;;;13.05;8.85;;;9.50;99.90;;;;;;5108229;28;20050;-86
2023/04/24 10:08:11;;;;;;;14.25;8.68;;;9.20;99.90;;;;;;5107211;28;20118;-87
2023/04/24 10:10:44;;;;;;;16.40;9.27;;;9.20;99.90;;;;;;5090990;28;20152;-86
2023/04/24 10:13:14;;;;;;;14.00;8.43;;;9.10;99.90;;;;;;5108161;28;20044;-87
2023/04/24 10:16:10;;;;;;;15.77;6.80;;;9.40;99.90;;;;;;5092239;28;20043;-88
2023/04/24 10:18:39;;;;;;;15.60;8.25;;;9.00;99.90;;;;;;5091576;28;20062;-87
2023/04/24 10:21:46;;;;;;;18.02;8.50;;;9.40;99.90;;;;;;5093677;28;20040;-88
2023/04/24 10:24:16;;;;;;;14.57;7.10;;;9.40;99.90;;;;;;5109318;28;20055;-87
2023/04/24 10:26:43;;;;;;;13.40;7.32;;;9.00;99.90;;;;;;5092550;28;20048;-88
2023/04/24 10:29:12;;;;;;;14.35;6.75;;;9.60;99.90;;;;;;5108783;28;20105;-87
2023/04/24 10:31:41;;;;;;;10.73;6.38;;;9.50;99.90;;;;;;5088866;28;20497;-87
2023/04/24 10:34:09;;;;;;;7.50;4.65;;;9.50;99.90;;;;;;5070962;28;20052;-86
2023/04/24 10:36:43;;;;;;;9.60;5.55;;;9.40;99.90;;;;;;5071624;28;20044;-86
2023/04/24 10:39:12;;;;;;;10.98;5.53;;;9.20;99.90;;;;;;5070526;28;20113;-87
2023/04/24 10:41:38;;;;;;;9.00;5.70;;;9.60;99.90;;;;;;5070930;28;20128;-86
2023/04/24 10:44:09;;;;;;;11.50;5.47;;;9.20;99.90;;;;;;5070466;28;20085;-87
2023/04/24 10:46:36;;;;;;;11.38;5.43;;;9.40;99.90;;;;;;5070025;28;20040;-87
2023/04/24 10:49:08;;;;;;;9.07;5.05;;;9.20;99.90;;;;;;5072010;28;20040;-89
2023/04/24 10:51:53;;;;;;;8.48;3.40;;;9.10;99.90;;;;;;5075947;28;20040;-86
2023/04/24 10:54:34;;;;;;;10.55;4.45;;;9.00;99.90;;;;;;5074121;28;20409;-87
2023/04/24 10:57:31;;;;;;;11.30;4.05;;;9.00;99.90;;;;;;5091711;28;20626;-87
2023/04/24 11:00:15;;;;;;;8.15;4.05;;;8.90;99.90;;;;;;5074192;28;20139;-89
2023/04/24 11:02:48;;;;;;;7.90;4.45;;;8.90;99.90;;;;;;5090962;28;20048;-87
2023/04/24 11:05:19;;;;;;;8.18;3.63;;;8.90;99.90;;;;;;5089246;28;20094;-87
2023/04/24 11:08:11;;;;;;;9.90;4.03;;;9.00;99.90;;;;;;5090203;28;20084;-90
2023/04/24 11:11:04;;;;;;;8.57;3.53;;;9.20;99.90;;;;;;5073036;28;20051;-87
2023/04/24 11:13:54;;;;;;;7.00;3.70;;;9.40;99.90;;;;;;5071572;28;20543;-87
2023/04/24 11:16:33;;;;;;;9.93;4.00;;;9.60;99.90;;;;;;5073316;28;20344;-89
2023/04/24 11:19:08;;;;;;;6.25;3.15;;;9.60;99.90;;;;;;5090323;28;20405;-89
2023/04/24 11:21:48;;;;;;;10.43;3.95;;;9.70;99.90;;;;;;5072573;28;20498;-87
2023/04/24 11:24:35;;;;;;;7.07;3.55;;;9.60;99.90;;;;;;5088497;28;20052;-87
2023/04/24 11:27:07;;;;;;;6.32;3.15;;;9.50;99.90;;;;;;5071549;28;20054;-86
2023/04/24 11:29:51;;;;;;;5.43;2.90;;;9.40;99.90;;;;;;5072399;28;20044;-87
2023/04/24 11:32:37;;;;;;;11.55;3.17;;;9.30;99.90;;;;;;5086629;28;20036;-85
2023/04/24 11:35:08;;;;;;;7.60;2.70;;;9.70;99.90;;;;;;5072086;28;20052;-87
2023/04/24 11:37:49;;;;;;;6.43;2.60;;;9.30;99.90;;;;;;5101938;27;20051;-85
2023/04/24 11:40:16;;;;;;;8.23;2.83;;;9.20;99.90;;;;;;5095322;27;20134;-86
2023/04/24 11:42:50;;;;;;;6.38;2.40;;;9.60;99.90;;;;;;5095589;27;20119;-87
2023/04/24 11:45:25;;;;;;;9.05;3.05;;;9.30;99.90;;;;;;5113216;27;20039;-88
2023/04/24 11:47:51;;;;;;;9.40;3.13;;;9.60;99.90;;;;;;5091007;28;20050;-88
2023/04/24 11:50:19;;;;;;;4.82;2.50;;;9.50;99.90;;;;;;5092177;28;20052;-87
2023/04/24 11:52:47;;;;;;;9.68;2.58;;;10.00;99.90;;;;;;5092646;28;20138;-87
2023/04/24 11:55:15;;;;;;;5.30;2.55;;;9.80;99.90;;;;;;5076194;28;20105;-87
2023/04/24 11:57:58;;;;;;;7.40;2.65;;;10.20;99.90;;;;;;5091957;28;20715;-87
2023/04/24 12:00:55;;;;;;;8.35;2.47;;;9.80;99.90;;;;;;5092317;28;20064;-88
2023/04/24 12:03:21;;;;;;;6.55;2.00;;;9.70;99.90;;;;;;5100946;27;20047;-88
2023/04/24 12:05:46;;;;;;;6.60;2.20;;;9.70;99.90;;;;;;5096073;27;20035;-88
2023/04/24 12:08:26;;;;;;;4.35;1.60;;;9.60;99.90;;;;;;5112987;27;20242;-88
2023/04/24 12:10:59;;;;;;;6.13;2.20;;;9.50;99.90;;;;;;5095684;27;20043;-86
2023/04/24 12:13:47;;;;;;;7.88;2.20;;;9.70;99.90;;;;;;5095202;27;20054;-87
2023/04/24 12:16:13;;;;;;;6.65;2.33;;;9.30;99.90;;;;;;5100207;27;20138;-87
2023/04/24 12:18:43;;;;;;;6.70;2.10;;;9.00;99.90;;;;;;5112922;27;20114;-87
2023/04/24 12:21:23;;;;;;;7.35;2.38;;;9.60;99.90;;;;;;5095242;27;20450;-87
2023/04/24 12:23:50;;;;;;;4.35;2.20;;;10.00;99.90;;;;;;5111127;27;20192;-87
2023/04/24 12:26:25;;;;;;;4.43;2.00;;;9.70;99.90;;;;;;5094602;27;20062;-87
2023/04/24 12:29:07;;;;;;;3.08;1.50;;;9.80;99.90;;;;;;5095043;27;20057;-87
2023/04/24 12:31:33;;;;;;;8.73;2.00;;;9.90;99.90;;;;;;5130833;27;20090;-87
2023/04/24 12:34:16;;;;;;;4.10;1.92;;;10.00;99.90;;;;;;5094104;27;20070;-87
2023/04/24 12:36:42;;;;;;;5.78;1.70;;;9.80;99.90;;;;;;5130569;27;20150;-87
2023/04/24 12:39:18;;;;;;;2.17;1.40;;;10.40;99.90;;;;;;5096669;28;20427;-87
2023/04/24 12:42:01;;;;;;;3.22;1.13;;;10.30;99.90;;;;;;5075346;28;20104;-87
2023/04/24 12:44:34;;;;;;;3.35;1.23;;;10.30;99.90;;;;;;5074573;28;20099;-86
2023/04/24 12:47:03;;;;;;;4.50;1.30;;;11.10;99.90;;;;;;5073375;28;20036;-87
2023/04/24 12:49:30;;;;;;;2.58;1.00;;;10.60;99.90;;;;;;5074319;28;20052;-87
2023/04/24 12:51:56;;;;;;;3.03;1.23;;;10.70;99.90;;;;;;5112458;28;20090;-88
2023/04/24 12:54:22;;;;;;;3.10;1.10;;;11.00;99.90;;;;;;5090219;28;20078;-87
2023/04/24 12:56:48;;;;;;;2.60;1.30;;;10.80;99.90;;;;;;5109677;27;20101;-88
2023/04/24 12:59:14;;;;;;;4.95;1.15;;;11.20;99.90;;;;;;5091535;28;20036;-88